首页
METAR-TAF:

METAR-TAF

机场 :

谢列梅捷沃国际机场

莫斯科舍列梅季耶夫, 俄罗斯

纬度: 55-58N, 经度: 037-25E, 海拔: 190米

当前天气观测

该预报发布于22分钟前的16:00 UTC
风速8节,风向西转西北
温度 6°C
湿度 61%
气压 1015 hPa
能见度10公里或以上
多云层高于5000英尺, 积雨云.

METAR: UUEE 231600Z 29004MPS 9999 BKN050CB 06/M01 Q1015 R88/190057 NOSIG

时间: 19:22 (16:22 UTC)

预报

该预报发布于2小时和23分钟前的13:59 UTC
预报有效从23日的 15点(UTC)到 24日的 15点(UTC)
风速16节,风向西转西北,有时为33节阵风
能见度10公里或以上
多云层高于2000英尺
短暂存在
从 23日的 15点(UTC)到 23日的 19点(UTC)
多云层高于1100英尺, 积雨云.
小阵雨
成为
从 23日的 19点(UTC)到 23日的 21点(UTC)
风速6节,风向西转西北,有时为16节阵风
成为
从 23日的 21点(UTC)到 23日的 23点(UTC)
少量云层高于700英尺
多云层高于1100英尺
短暂存在
从 23日的 23点(UTC)到 24日的 08点(UTC)
少量云层高于400英尺
散云层高于1200英尺, 积雨云.
小阵雨, 雪
短暂存在
从 24日的 08点(UTC)到 24日的 13点(UTC)
散云层高于1200英尺, 积雨云.
小阵雨

TAF: UUEE 231359Z 2315/2415 30008G17MPS 9999 BKN020 TX06/2412Z TN00/2403Z TEMPO 2315/2319 -SHRA BKN011CB BECMG 2319/2321 30003G08MPS BECMG 2321/2323 FEW007 BKN011 TEMPO 2323/2408 -SHRASN FEW004 SCT012CB TEMPO 2408/2413 -SHRA SCT012CB

超过4000个机场的气象观测和天气预报(METAR&TAF报告)。

可查询的气象台以黄色和红色小点在地图上表示。

将鼠标移到小点上方,可查看气象台名称。

然后点击查看天气观测和预报。

如需切换地图:点击带黑十字的绿色按钮放大地图;点击带横线的绿色按钮缩小地图;或者点击绿色箭头查看邻近地区的地图。


METAR-TAF: